createdAt,value
2023-04-10T08:16:31.035Z,22.33
2023-04-10T08:18:58.312Z,20.70
2023-04-10T08:21:26.865Z,21.95
2023-04-10T08:23:54.702Z,21.00
2023-04-10T08:26:21.611Z,20.08
2023-04-10T08:28:50.858Z,18.60
2023-04-10T08:31:18.663Z,19.88
2023-04-10T08:33:45.779Z,21.15
2023-04-10T08:36:13.223Z,18.60
2023-04-10T08:38:39.992Z,20.13
2023-04-10T08:41:06.869Z,18.83
2023-04-10T08:43:34.782Z,17.55
2023-04-10T08:46:01.950Z,18.27
2023-04-10T08:48:36.206Z,17.42
2023-04-10T08:51:04.965Z,16.02
2023-04-10T08:53:36.123Z,14.80
2023-04-10T08:56:04.452Z,15.25
2023-04-10T08:58:31.292Z,17.27
2023-04-10T09:00:58.144Z,17.05
2023-04-10T09:03:25.957Z,18.75
2023-04-10T09:05:53.910Z,18.20
2023-04-10T09:08:20.647Z,17.98
2023-04-10T09:10:47.325Z,16.23
2023-04-10T09:13:14.065Z,14.57
2023-04-10T09:16:00.630Z,17.00
2023-04-10T09:18:43.207Z,18.15
2023-04-10T09:21:15.607Z,16.20
2023-04-10T09:23:44.588Z,16.67
2023-04-10T09:26:26.350Z,15.88
2023-04-10T09:28:58.126Z,14.68
2023-04-10T09:31:33.311Z,14.00
2023-04-10T09:34:21.702Z,13.88
2023-04-10T09:36:56.936Z,12.60
2023-04-10T09:39:33.945Z,12.65
2023-04-10T09:42:00.716Z,12.88
2023-04-10T09:44:34.110Z,13.25
2023-04-10T09:47:21.974Z,12.38
2023-04-10T09:49:50.644Z,13.38
2023-04-10T09:52:22.640Z,13.18
2023-04-10T09:54:49.304Z,12.05
2023-04-10T09:57:21.269Z,11.40
2023-04-10T09:59:53.155Z,11.85
2023-04-10T10:02:21.581Z,10.57
2023-04-10T10:04:49.445Z,11.82
2023-04-10T10:07:17.340Z,11.23
2023-04-10T10:09:45.259Z,9.95
2023-04-10T10:12:13.120Z,10.85
2023-04-10T10:15:12.905Z,9.88
2023-04-10T10:17:43.959Z,10.27
2023-04-10T10:20:12.025Z,11.02
2023-04-10T10:22:38.949Z,12.18
2023-04-10T10:25:08.159Z,10.60
2023-04-10T10:27:37.578Z,11.90
2023-04-10T10:30:12.041Z,11.10
2023-04-10T10:32:48.040Z,11.23
2023-04-10T10:35:15.007Z,10.30
2023-04-10T10:37:42.914Z,10.80
2023-04-10T10:40:14.688Z,11.27
2023-04-10T10:42:46.980Z,10.93
2023-04-10T10:45:26.169Z,10.40
2023-04-10T10:47:54.656Z,10.02
2023-04-10T10:50:24.953Z,9.90
2023-04-10T10:52:54.159Z,9.88
2023-04-10T10:55:37.314Z,9.63
2023-04-10T10:58:06.757Z,11.05
2023-04-10T11:00:52.030Z,10.93
2023-04-10T11:03:19.241Z,10.38
2023-04-10T11:05:50.996Z,10.25
2023-04-10T11:08:18.045Z,10.85
2023-04-10T11:11:05.992Z,10.60
2023-04-10T11:13:33.737Z,9.65
2023-04-10T11:16:04.635Z,10.68
2023-04-10T11:18:49.612Z,8.90
2023-04-10T11:21:23.782Z,10.38
2023-04-10T11:23:50.436Z,10.07
2023-04-10T11:26:41.740Z,9.43
2023-04-10T11:29:17.767Z,10.13
2023-04-10T11:31:45.748Z,10.05
2023-04-10T11:34:12.686Z,10.32
2023-04-10T11:36:44.301Z,8.90
2023-04-10T11:39:17.962Z,10.60
2023-04-10T11:41:52.809Z,9.32
2023-04-10T11:44:28.244Z,8.52
2023-04-10T11:46:55.065Z,9.32
2023-04-10T11:49:33.062Z,9.10
2023-04-10T11:51:59.849Z,9.48
2023-04-10T11:54:27.934Z,8.15
2023-04-10T11:57:11.897Z,8.52
2023-04-10T11:59:38.821Z,7.97
2023-04-10T12:02:13.108Z,7.95
2023-04-10T12:04:40.816Z,8.15
2023-04-10T12:07:08.164Z,8.20
2023-04-10T12:09:35.031Z,7.30
2023-04-10T12:12:04.315Z,7.63
2023-04-10T12:14:38.843Z,7.68
2023-04-10T12:17:07.979Z,7.85
2023-04-10T12:19:35.418Z,6.88
2023-04-10T12:22:03.228Z,7.35
2023-04-10T12:24:46.842Z,7.07
2023-04-10T12:27:23.728Z,7.00
2023-04-10T12:29:52.625Z,6.57
2023-04-10T12:32:20.086Z,6.47
2023-04-10T12:34:51.680Z,7.65
2023-04-10T12:37:21.661Z,7.45
2023-04-10T12:39:48.696Z,7.45
2023-04-10T12:42:21.167Z,7.13
2023-04-10T12:44:59.697Z,7.43
2023-04-10T12:47:28.039Z,7.45
2023-04-10T12:50:11.861Z,7.65
2023-04-10T12:52:41.730Z,7.20
2023-04-10T12:55:31.642Z,7.15
2023-04-10T12:57:58.720Z,6.50
2023-04-10T13:00:25.977Z,6.53
2023-04-10T13:02:52.963Z,6.85
2023-04-10T13:05:20.255Z,6.97
2023-04-10T13:07:46.958Z,6.85
2023-04-10T13:10:17.858Z,6.50
2023-04-10T13:12:47.281Z,6.88
2023-04-10T13:15:14.377Z,7.30
2023-04-10T13:17:42.626Z,7.20
2023-04-10T13:20:10.262Z,6.88
2023-04-10T13:22:37.376Z,6.85
2023-04-10T13:25:04.845Z,6.28
2023-04-10T13:27:31.693Z,6.60
2023-04-10T13:29:58.679Z,6.68
2023-04-10T13:32:25.610Z,6.75
2023-04-10T13:34:55.184Z,6.10
2023-04-10T13:37:22.015Z,6.07
2023-04-10T13:39:48.731Z,6.60
2023-04-10T13:42:15.624Z,6.55
2023-04-10T13:44:42.454Z,5.65
2023-04-10T13:47:09.415Z,5.80
2023-04-10T13:49:36.251Z,6.00
2023-04-10T13:52:03.150Z,6.03
2023-04-10T13:54:29.987Z,5.88
2023-04-10T13:56:57.732Z,5.47
2023-04-10T13:59:25.498Z,5.63
2023-04-10T14:01:52.751Z,6.80
2023-04-10T14:04:19.879Z,6.80
2023-04-10T14:06:46.789Z,7.25
2023-04-10T14:09:13.648Z,6.30
2023-04-10T14:11:40.440Z,6.43
2023-04-10T14:14:07.157Z,7.32
2023-04-10T14:16:33.900Z,6.38
2023-04-10T14:19:00.752Z,7.28
2023-04-10T14:21:27.694Z,6.28
2023-04-10T14:23:54.522Z,6.15
2023-04-10T14:26:21.731Z,6.43
2023-04-10T14:28:48.490Z,6.65
2023-04-10T14:31:15.164Z,7.80
2023-04-10T14:33:41.905Z,7.10
2023-04-10T14:36:09.029Z,7.05
2023-04-10T14:38:37.003Z,7.15
2023-04-10T14:41:04.019Z,6.60
2023-04-10T14:43:30.935Z,6.22
2023-04-10T14:45:58.691Z,6.45
2023-04-10T14:48:25.741Z,6.30
2023-04-10T14:50:52.584Z,6.65
2023-04-10T14:53:21.777Z,7.28
2023-04-10T14:55:48.490Z,7.72
2023-04-10T14:58:15.154Z,6.90
2023-04-10T15:00:44.094Z,6.60
2023-04-10T15:03:11.187Z,7.40
2023-04-10T15:05:41.976Z,7.35
2023-04-10T15:08:09.376Z,7.53
2023-04-10T15:10:45.073Z,6.63
2023-04-10T15:16:29.139Z,7.45
2023-04-10T15:18:57.266Z,6.80
2023-04-10T15:21:32.573Z,7.13
2023-04-10T15:24:03.548Z,7.22
2023-04-10T15:26:30.847Z,7.50
2023-04-10T15:28:57.788Z,7.63
2023-04-10T15:31:24.737Z,6.97
2023-04-10T15:33:52.233Z,6.65
2023-04-10T15:36:19.264Z,6.72
2023-04-10T15:38:49.945Z,5.95
2023-04-10T15:41:17.070Z,6.68
2023-04-10T15:43:44.451Z,7.30
2023-04-10T15:46:11.327Z,6.93
2023-04-10T15:48:38.534Z,7.70
2023-04-10T15:51:08.522Z,6.97
2023-04-10T15:53:35.877Z,6.75
2023-04-10T15:56:06.625Z,7.30
2023-04-10T15:58:33.722Z,7.22
2023-04-10T16:01:00.612Z,6.35
2023-04-10T16:03:30.028Z,6.32
2023-04-10T16:05:58.717Z,6.68
2023-04-10T16:08:26.580Z,6.68
2023-04-10T16:10:54.168Z,6.90
2023-04-10T16:13:21.107Z,6.32
2023-04-10T16:15:47.867Z,6.65
2023-04-10T16:18:14.677Z,6.28
2023-04-10T16:20:42.054Z,6.80
2023-04-10T16:23:08.740Z,6.50
